Time;durP1;ratioP1;P1;durP2;ratioP2;P2;SDS_P1;SDS_P2;PMS_P1;PMS_P2;Temp;Humidity;BMP_temperature;BMP_pressure;BME280_temperature;BME280_humidity;BME280_pressure;Samples;Min_cycle;Max_cycle;Signal;HPM_P1;HPM_P2
2023/11/25 00:00:18;;;;;;;;;;;;;;;;;;4989645;28;19922;-68
2023/11/25 00:02:44;;;;;;;;;;;;;;;;;;4985240;28;19924;-66
2023/11/25 00:05:10;;;;;;;;;;;;;;;;;;4984799;28;19917;-68
2023/11/25 00:07:36;;;;;;;;;;;;;;;;;;4981507;28;19918;-66
2023/11/25 00:10:04;;;;;;;;;;;;;;;;;;4990911;28;19924;-66
2023/11/25 00:12:30;;;;;;;;;;;;;;;;;;4985751;28;20011;-67
2023/11/25 00:14:56;;;;;;;;;;;;;;;;;;4985360;28;19926;-67
2023/11/25 00:17:24;;;;;;;;;;;;;;;;;;4989564;28;19918;-67
2023/11/25 00:19:50;;;;;;;;;;;;;;;;;;4987260;28;20386;-66
2023/11/25 00:22:16;;;;;;;;;;;;;;;;;;4990714;28;19983;-66
2023/11/25 00:24:42;;;;;;;;;;;;;;;;;;4989222;28;20386;-66
2023/11/25 00:27:08;;;;;;;;;;;;;;;;;;4991047;28;19917;-67
2023/11/25 00:29:34;;;;;;;;;;;;;;;;;;4987696;28;19924;-66
2023/11/25 00:32:00;;;;;;;;;;;;;;;;;;4990749;28;19922;-67
2023/11/25 00:34:26;;;;;;;;;;;;;;;;;;4987527;28;19924;-66
2023/11/25 00:36:52;;;;;;;;;;;;;;;;;;4983900;28;19921;-66
2023/11/25 00:39:19;;;;;;;;;;;;;;;;;;4983318;28;19923;-67
2023/11/25 00:41:45;;;;;;;;;;;;;;;;;;4985306;28;19922;-66
2023/11/25 00:44:11;;;;;;;;;;;;;;;;;;4988640;28;19917;-68
2023/11/25 00:46:38;;;;;;;;;;;;;;;;;;4981933;28;19925;-67
2023/11/25 00:49:05;;;;;;;;;;;;;;;;;;4986575;28;20386;-68
2023/11/25 00:51:31;;;;;;;;;;;;;;;;;;4989316;28;19929;-66
2023/11/25 00:53:57;;;;;;;;;;;;;;;;;;4987182;28;19918;-68
2023/11/25 00:56:23;;;;;;;;;;;;;;;;;;4993282;28;20378;-66
2023/11/25 00:58:49;;;;;;;;;;;;;;;;;;4984302;28;19925;-66
2023/11/25 01:01:15;;;;;;;;;;;;;;;;;;4989828;28;19930;-67
2023/11/25 01:03:41;;;;;;;;;;;;;;;;;;4979106;28;19922;-66
2023/11/25 01:06:07;;;;;;;;;;;;;;;;;;4988508;28;19917;-69
2023/11/25 01:08:33;;;;;;;;;;;;;;;;;;4989111;28;19916;-68
2023/11/25 01:10:59;;;;;;;;;;;;;;;;;;4990843;28;19988;-67
2023/11/25 01:13:25;;;;;;;;;;;;;;;;;;4986869;28;20019;-67
2023/11/25 01:15:51;;;;;;;;;;;;;;;;;;4982435;28;20714;-66
2023/11/25 01:18:17;;;;;;;;;;;;;;;;;;4987280;28;19917;-67
2023/11/25 01:20:43;;;;;;;;;;;;;;;;;;4982382;28;20004;-67
2023/11/25 01:23:10;;;;;;;;;;;;;;;;;;4985369;28;19952;-67
2023/11/25 01:25:36;;;;;;;;;;;;;;;;;;4982421;28;19913;-67
2023/11/25 01:28:03;;;;;;;;;;;;;;;;;;4985535;28;19921;-67
2023/11/25 01:30:30;;;;;;;;;;;;;;;;;;4988940;28;20746;-67
2023/11/25 01:32:58;;;;;;;;;;;;;;;;;;4984713;28;19925;-67
2023/11/25 01:35:24;;;;;;;;;;;;;;;;;;4986816;28;20737;-67
2023/11/25 01:37:50;;;;;;;;;;;;;;;;;;4985992;28;20020;-67
2023/11/25 01:40:17;;;;;;;;;;;;;;;;;;4981883;28;20440;-67
2023/11/25 01:42:42;;;;;;;;;;;;;;;;;;4985254;28;19921;-67
2023/11/25 01:45:09;;;;;;;;;;;;;;;;;;4989705;28;20355;-67
2023/11/25 01:47:36;;;;;;;;;;;;;;;;;;4986609;28;19924;-68
2023/11/25 01:50:02;;;;;;;;;;;;;;;;;;4992021;28;19925;-68
2023/11/25 01:52:29;;;;;;;;;;;;;;;;;;4990363;28;20007;-68
2023/11/25 01:54:55;;;;;;;;;;;;;;;;;;4989907;28;19918;-68
2023/11/25 01:57:21;;;;;;;;;;;;;;;;;;5004932;28;20100;-68
2023/11/25 01:59:47;;;;;;;;;;;;;;;;;;4986491;28;20044;-68
2023/11/25 02:02:13;;;;;;;;;;;;;;;;;;4981922;28;19926;-66
2023/11/25 02:04:39;;;;;;;;;;;;;;;;;;4987318;28;19924;-66
2023/11/25 02:07:04;;;;;;;;;;;;;;;;;;4987009;28;19917;-65
2023/11/25 02:09:31;;;;;;;;;;;;;;;;;;4990814;28;20682;-66
2023/11/25 02:11:57;;;;;;;;;;;;;;;;;;4986342;28;20418;-67
2023/11/25 02:14:23;;;;;;;;;;;;;;;;;;4990661;28;19925;-68
2023/11/25 02:16:49;;;;;;;;;;;;;;;;;;4985358;28;19917;-66
2023/11/25 02:19:15;;;;;;;;;;;;;;;;;;4989541;28;19921;-68
2023/11/25 02:21:41;;;;;;;;;;;;;;;;;;4985482;28;19979;-65
2023/11/25 02:24:07;;;;;;;;;;;;;;;;;;4989448;28;20670;-66
2023/11/25 02:26:34;;;;;;;;;;;;;;;;;;4986653;28;19918;-66
2023/11/25 02:29:00;;;;;;;;;;;;;;;;;;4989129;28;19924;-68
2023/11/25 02:31:26;;;;;;;;;;;;;;;;;;4985608;28;20627;-68
2023/11/25 02:33:52;;;;;;;;;;;;;;;;;;5004788;28;19925;-68
2023/11/25 02:36:18;;;;;;;;;;;;;;;;;;4986973;28;20027;-67
2023/11/25 02:38:45;;;;;;;;;;;;;;;;;;4988982;28;19975;-65
2023/11/25 02:41:12;;;;;;;;;;;;;;;;;;4990394;28;19918;-66
2023/11/25 02:43:38;;;;;;;;;;;;;;;;;;4986096;28;19925;-66
2023/11/25 02:46:04;;;;;;;;;;;;;;;;;;4991275;28;20035;-68
2023/11/25 02:48:30;;;;;;;;;;;;;;;;;;4996085;28;19922;-68
2023/11/25 02:50:56;;;;;;;;;;;;;;;;;;4992359;28;19913;-68
2023/11/25 02:53:23;;;;;;;;;;;;;;;;;;4987633;28;19922;-66
2023/11/25 02:55:49;;;;;;;;;;;;;;;;;;4986472;28;20893;-69
2023/11/25 02:58:16;;;;;;;;;;;;;;;;;;4989377;28;19917;-67
2023/11/25 03:00:43;;;;;;;;;;;;;;;;;;4986120;28;19957;-67
2023/11/25 03:03:12;;;;;;;;;;;;;;;;;;4988224;28;20455;-69
2023/11/25 03:05:38;;;;;;;;;;;;;;;;;;4986558;28;20016;-66
2023/11/25 03:08:04;;;;;;;;;;;;;;;;;;4990058;28;19914;-66
2023/11/25 03:10:30;;;;;;;;;;;;;;;;;;4989953;28;19928;-66
2023/11/25 03:12:56;;;;;;;;;;;;;;;;;;4985017;28;20626;-66
2023/11/25 03:15:22;;;;;;;;;;;;;;;;;;4991941;28;19918;-66
2023/11/25 03:17:48;;;;;;;;;;;;;;;;;;4988696;28;20420;-66
2023/11/25 03:20:14;;;;;;;;;;;;;;;;;;4993248;28;20523;-66
2023/11/25 03:22:40;;;;;;;;;;;;;;;;;;4987956;28;19924;-66
2023/11/25 03:25:06;;;;;;;;;;;;;;;;;;4987518;28;19921;-67
2023/11/25 03:27:32;;;;;;;;;;;;;;;;;;4988636;28;19949;-67
2023/11/25 03:29:58;;;;;;;;;;;;;;;;;;4993537;28;20254;-67
2023/11/25 03:32:25;;;;;;;;;;;;;;;;;;4993073;28;19925;-66
2023/11/25 03:34:51;;;;;;;;;;;;;;;;;;4999364;28;19922;-66
2023/11/25 03:37:17;;;;;;;;;;;;;;;;;;4990101;28;19924;-66
2023/11/25 03:39:43;;;;;;;;;;;;;;;;;;4989142;28;19949;-66
2023/11/25 03:42:09;;;;;;;;;;;;;;;;;;4986978;28;19922;-66
2023/11/25 03:44:36;;;;;;;;;;;;;;;;;;4986267;28;19921;-67
2023/11/25 03:47:03;;;;;;;;;;;;;;;;;;4989584;28;19922;-67
2023/11/25 03:49:29;;;;;;;;;;;;;;;;;;4987590;28;20554;-66
2023/11/25 03:51:55;;;;;;;;;;;;;;;;;;4985444;28;19918;-65
2023/11/25 03:54:21;;;;;;;;;;;;;;;;;;4984408;28;20557;-66
2023/11/25 03:56:47;;;;;;;;;;;;;;;;;;4987221;28;19921;-66
2023/11/25 03:59:13;;;;;;;;;;;;;;;;;;4984479;28;19995;-68
2023/11/25 04:01:41;;;;;;;;;;;;;;;;;;4987631;28;19924;-68
2023/11/25 04:04:08;;;;;;;;;;;;;;;;;;4988071;28;19917;-65
2023/11/25 04:06:34;;;;;;;;;;;;;;;;;;4984109;28;19917;-66
2023/11/25 04:09:00;;;;;;;;;;;;;;;;;;4989945;28;19918;-66
2023/11/25 04:11:26;;;;;;;;;;;;;;;;;;4988496;28;19917;-66
2023/11/25 04:13:56;;;;;;;;;;;;;;;;;;4989419;28;19926;-67
2023/11/25 04:16:22;;;;;;;;;;;;;;;;;;4990979;28;20695;-66
2023/11/25 04:18:48;;;;;;;;;;;;;;;;;;4984077;28;19918;-66
2023/11/25 04:21:14;;;;;;;;;;;;;;;;;;4989401;28;19918;-67
2023/11/25 04:23:40;;;;;;;;;;;;;;;;;;4980947;28;20558;-66
2023/11/25 04:26:06;;;;;;;;;;;;;;;;;;4991640;28;19941;-66
2023/11/25 04:28:33;;;;;;;;;;;;;;;;;;4985291;28;20004;-67
2023/11/25 04:30:59;;;;;;;;;;;;;;;;;;4988057;28;19918;-66
2023/11/25 04:33:25;;;;;;;;;;;;;;;;;;4986942;28;19921;-66
2023/11/25 04:35:54;;;;;;;;;;;;;;;;;;4978422;28;19994;-66
2023/11/25 04:38:20;;;;;;;;;;;;;;;;;;4992001;28;20615;-66
2023/11/25 04:40:46;;;;;;;;;;;;;;;;;;4987112;28;19920;-66
2023/11/25 04:43:12;;;;;;;;;;;;;;;;;;4987762;28;19931;-66
2023/11/25 04:45:38;;;;;;;;;;;;;;;;;;4982868;28;19941;-66
2023/11/25 04:48:04;;;;;;;;;;;;;;;;;;4989054;28;19925;-66
2023/11/25 04:50:30;;;;;;;;;;;;;;;;;;4987978;28;20515;-67
2023/11/25 04:52:56;;;;;;;;;;;;;;;;;;4984184;28;19925;-67
2023/11/25 04:55:25;;;;;;;;;;;;;;;;;;4989383;28;19930;-67
2023/11/25 04:57:51;;;;;;;;;;;;;;;;;;4985718;28;21285;-66
2023/11/25 05:00:18;;;;;;;;;;;;;;;;;;4987635;28;19917;-66
2023/11/25 05:02:43;;;;;;;;;;;;;;;;;;4986538;28;19928;-66
2023/11/25 05:05:09;;;;;;;;;;;;;;;;;;4990646;28;19925;-67
2023/11/25 05:07:35;;;;;;;;;;;;;;;;;;4986563;28;19918;-67
2023/11/25 05:10:02;;;;;;;;;;;;;;;;;;4988188;28;19917;-67
2023/11/25 05:12:28;;;;;;;;;;;;;;;;;;4990662;28;19972;-66
2023/11/25 05:14:54;;;;;;;;;;;;;;;;;;4982320;28;20052;-66
2023/11/25 05:17:21;;;;;;;;;;;;;;;;;;4987298;28;19957;-66
2023/11/25 05:19:47;;;;;;;;;;;;;;;;;;4982118;28;20283;-66
2023/11/25 05:22:13;;;;;;;;;;;;;;;;;;4986606;28;19924;-67
2023/11/25 05:24:39;;;;;;;;;;;;;;;;;;4984509;28;19972;-68
2023/11/25 05:27:05;;;;;;;;;;;;;;;;;;4986598;28;19922;-66
2023/11/25 05:29:31;;;;;;;;;;;;;;;;;;4986184;28;19925;-66
2023/11/25 05:31:57;;;;;;;;;;;;;;;;;;4982935;28;19917;-66
2023/11/25 05:34:23;;;;;;;;;;;;;;;;;;4988106;28;20418;-67
2023/11/25 05:36:49;;;;;;;;;;;;;;;;;;4982601;28;19917;-67
2023/11/25 05:39:20;;;;;;;;;;;;;;;;;;4985507;28;19918;-66
2023/11/25 05:41:46;;;;;;;;;;;;;;;;;;4997882;28;20551;-66
2023/11/25 05:44:12;;;;;;;;;;;;;;;;;;4982301;28;19979;-67
2023/11/25 05:46:38;;;;;;;;;;;;;;;;;;4985664;28;19963;-66
2023/11/25 05:49:04;;;;;;;;;;;;;;;;;;4987726;28;20020;-66
2023/11/25 05:51:30;;;;;;;;;;;;;;;;;;4989778;28;19922;-66
2023/11/25 05:53:56;;;;;;;;;;;;;;;;;;4987772;28;20407;-68
2023/11/25 05:56:23;;;;;;;;;;;;;;;;;;4985843;28;19930;-66
2023/11/25 05:58:51;;;;;;;;;;;;;;;;;;4985650;28;19919;-68
2023/11/25 06:01:17;;;;;;;;;;;;;;;;;;4989169;28;20620;-68
2023/11/25 06:03:43;;;;;;;;;;;;;;;;;;4980652;28;19917;-68
2023/11/25 06:06:10;;;;;;;;;;;;;;;;;;4989062;28;20516;-66
2023/11/25 06:08:37;;;;;;;;;;;;;;;;;;4980977;28;19921;-68
2023/11/25 06:11:02;;;;;;;;;;;;;;;;;;4989429;28;19925;-67
2023/11/25 06:13:29;;;;;;;;;;;;;;;;;;4987880;28;19929;-66
2023/11/25 06:15:56;;;;;;;;;;;;;;;;;;4998877;28;19925;-67
2023/11/25 06:18:22;;;;;;;;;;;;;;;;;;4985893;28;19925;-66
2023/11/25 06:20:48;;;;;;;;;;;;;;;;;;4985912;28;19924;-66
2023/11/25 06:23:17;;;;;;;;;;;;;;;;;;4984878;28;19922;-66
2023/11/25 06:25:43;;;;;;;;;;;;;;;;;;4984091;28;19917;-68
2023/11/25 06:28:09;;;;;;;;;;;;;;;;;;4986755;28;19917;-66
2023/11/25 06:30:35;;;;;;;;;;;;;;;;;;4983521;28;19917;-66
2023/11/25 06:33:01;;;;;;;;;;;;;;;;;;4990346;28;19921;-67
2023/11/25 06:35:27;;;;;;;;;;;;;;;;;;4988399;28;19924;-67
2023/11/25 06:37:53;;;;;;;;;;;;;;;;;;4983777;28;19922;-68
2023/11/25 06:40:19;;;;;;;;;;;;;;;;;;4986440;28;20683;-66
2023/11/25 06:42:45;;;;;;;;;;;;;;;;;;4981297;28;20498;-68
2023/11/25 06:45:13;;;;;;;;;;;;;;;;;;4989462;28;19913;-67
2023/11/25 06:47:39;;;;;;;;;;;;;;;;;;4985346;28;20028;-67
2023/11/25 06:50:05;;;;;;;;;;;;;;;;;;4991716;28;19971;-67
2023/11/25 06:52:32;;;;;;;;;;;;;;;;;;4987887;28;19952;-68
2023/11/25 06:55:00;;;;;;;;;;;;;;;;;;4986885;28;20028;-67
2023/11/25 06:57:27;;;;;;;;;;;;;;;;;;4985750;28;19921;-66
2023/11/25 06:59:53;;;;;;;;;;;;;;;;;;4988801;28;20344;-66
2023/11/25 07:02:19;;;;;;;;;;;;;;;;;;4984080;28;19917;-68
2023/11/25 07:04:45;;;;;;;;;;;;;;;;;;4998053;28;19976;-66
2023/11/25 07:07:12;;;;;;;;;;;;;;;;;;4982094;28;20079;-66
2023/11/25 07:09:39;;;;;;;;;;;;;;;;;;4982516;28;19929;-67
2023/11/25 07:12:05;;;;;;;;;;;;;;;;;;4985885;28;19933;-67
2023/11/25 07:14:31;;;;;;;;;;;;;;;;;;4983420;28;19922;-67
2023/11/25 07:16:57;;;;;;;;;;;;;;;;;;4986060;28;19937;-67
2023/11/25 07:19:23;;;;;;;;;;;;;;;;;;4986868;28;19965;-69
2023/11/25 07:21:50;;;;;;;;;;;;;;;;;;4985535;28;20289;-66
2023/11/25 07:24:16;;;;;;;;;;;;;;;;;;4987869;28;19917;-67
2023/11/25 07:26:51;;;;;;;;;;;;;;;;;;4982513;28;19921;-69
2023/11/25 07:29:18;;;;;;;;;;;;;;;;;;4990482;28;19917;-66
2023/11/25 07:31:43;;;;;;;;;;;;;;;;;;4986249;28;19956;-67
2023/11/25 07:34:10;;;;;;;;;;;;;;;;;;4989666;28;20498;-66
2023/11/25 07:36:37;;;;;;;;;;;;;;;;;;4985244;28;19928;-68
2023/11/25 07:39:04;;;;;;;;;;;;;;;;;;4985922;28;19934;-66
2023/11/25 07:41:31;;;;;;;;;;;;;;;;;;4989497;28;19925;-69
2023/11/25 07:43:57;;;;;;;;;;;;;;;;;;4981776;28;20275;-68
2023/11/25 07:46:22;;;;;;;;;;;;;;;;;;4992681;28;19922;-68
2023/11/25 07:48:48;;;;;;;;;;;;;;;;;;4983265;28;19924;-68
2023/11/25 07:51:14;;;;;;;;;;;;;;;;;;4990402;28;19971;-67
2023/11/25 07:53:40;;;;;;;;;;;;;;;;;;4984228;28;19921;-66
2023/11/25 07:56:06;;;;;;;;;;;;;;;;;;4987730;28;19922;-69
2023/11/25 07:58:32;;;;;;;;;;;;;;;;;;4984194;28;20279;-68
2023/11/25 08:00:58;;;;;;;;;;;;;;;;;;4990753;28;20454;-69
2023/11/25 08:03:24;;;;;;;;;;;;;;;;;;4992923;28;19918;-68
2023/11/25 08:05:50;;;;;;;;;;;;;;;;;;4985946;28;20287;-68
2023/11/25 08:08:16;;;;;;;;;;;;;;;;;;4991675;28;19928;-67
2023/11/25 08:10:42;;;;;;;;;;;;;;;;;;4998967;28;19918;-67
2023/11/25 08:13:08;;;;;;;;;;;;;;;;;;4988406;28;19929;-67
2023/11/25 08:15:34;;;;;;;;;;;;;;;;;;4987175;28;19917;-67
2023/11/25 08:18:00;;;;;;;;;;;;;;;;;;4989522;28;20000;-67
2023/11/25 08:20:26;;;;;;;;;;;;;;;;;;4987606;28;19913;-67
2023/11/25 08:22:53;;;;;;;;;;;;;;;;;;4986267;28;20389;-66
2023/11/25 08:25:19;;;;;;;;;;;;;;;;;;4983001;28;19928;-66
2023/11/25 08:27:45;;;;;;;;;;;;;;;;;;4984535;28;19917;-67
2023/11/25 08:30:11;;;;;;;;;;;;;;;;;;4980411;28;20015;-68
2023/11/25 08:32:38;;;;;;;;;;;;;;;;;;4982584;28;19988;-68
2023/11/25 08:35:05;;;;;;;;;;;;;;;;;;4989185;28;20005;-68
2023/11/25 08:37:32;;;;;;;;;;;;;;;;;;4987675;28;19913;-68
2023/11/25 08:39:58;;;;;;;;;;;;;;;;;;4987231;28;19940;-69
2023/11/25 08:42:26;;;;;;;;;;;;;;;;;;4986106;28;20376;-69
2023/11/25 08:44:52;;;;;;;;;;;;;;;;;;4981567;28;20587;-68
2023/11/25 08:47:18;;;;;;;;;;;;;;;;;;4982963;28;20387;-68
2023/11/25 08:49:45;;;;;;;;;;;;;;;;;;4983698;28;19974;-68
2023/11/25 08:52:12;;;;;;;;;;;;;;;;;;4985951;28;20368;-67
2023/11/25 08:54:38;;;;;;;;;;;;;;;;;;4983391;28;19921;-67
2023/11/25 08:57:07;;;;;;;;;;;;;;;;;;4989825;28;20291;-67
2023/11/25 08:59:33;;;;;;;;;;;;;;;;;;4983676;28;20032;-67
2023/11/25 09:01:59;;;;;;;;;;;;;;;;;;4987118;28;19919;-67
2023/11/25 09:04:28;;;;;;;;;;;;;;;;;;4986586;28;19924;-67
2023/11/25 09:06:57;;;;;;;;;;;;;;;;;;4983756;28;19964;-66
2023/11/25 09:09:25;;;;;;;;;;;;;;;;;;4985885;28;20032;-66
2023/11/25 09:11:51;;;;;;;;;;;;;;;;;;4980509;28;19979;-67
2023/11/25 09:14:18;;;;;;;;;;;;;;;;;;4984394;28;20020;-66
2023/11/25 09:16:44;;;;;;;;;;;;;;;;;;4983515;28;20063;-66
2023/11/25 09:19:11;;;;;;;;;;;;;;;;;;4985470;28;19917;-66
2023/11/25 09:21:37;;;;;;;;;;;;;;;;;;4985032;28;19917;-66
2023/11/25 09:24:04;;;;;;;;;;;;;;;;;;4989658;28;19924;-65
2023/11/25 09:26:29;;;;;;;;;;;;;;;;;;4999796;28;19991;-66
2023/11/25 09:28:55;;;;;;;;;;;;;;;;;;4982632;28;19925;-66
2023/11/25 09:31:22;;;;;;;;;;;;;;;;;;4985066;28;20606;-68
2023/11/25 09:33:48;;;;;;;;;;;;;;;;;;4982707;28;20003;-66
2023/11/25 09:36:14;;;;;;;;;;;;;;;;;;4986681;28;19925;-66
2023/11/25 09:38:40;;;;;;;;;;;;;;;;;;4984215;28;19924;-66
2023/11/25 09:41:06;;;;;;;;;;;;;;;;;;4987287;28;19921;-66
2023/11/25 09:43:32;;;;;;;;;;;;;;;;;;4982618;28;20345;-68
2023/11/25 09:45:59;;;;;;;;;;;;;;;;;;4982802;28;20557;-67
2023/11/25 09:48:24;;;;;;;;;;;;;;;;;;4985069;28;20367;-68
2023/11/25 09:50:51;;;;;;;;;;;;;;;;;;4984307;28;19924;-66
2023/11/25 09:53:17;;;;;;;;;;;;;;;;;;4982310;28;19925;-66
2023/11/25 09:55:43;;;;;;;;;;;;;;;;;;4979506;28;19979;-68
2023/11/25 09:58:17;;;;;;;;;;;;;;;;;;4984755;28;19924;-65
2023/11/25 10:00:43;;;;;;;;;;;;;;;;;;4983433;28;19972;-68
2023/11/25 10:03:10;;;;;;;;;;;;;;;;;;4988703;28;20016;-66
2023/11/25 10:05:36;;;;;;;;;;;;;;;;;;4982957;28;20040;-66
2023/11/25 10:08:04;;;;;;;;;;;;;;;;;;4985581;28;19928;-71
2023/11/25 10:10:30;;;;;;;;;;;;;;;;;;4985562;28;19967;-72
2023/11/25 10:12:56;;;;;;;;;;;;;;;;;;4979509;28;19969;-72
2023/11/25 10:15:22;;;;;;;;;;;;;;;;;;4985092;28;20048;-71
2023/11/25 10:17:48;;;;;;;;;;;;;;;;;;4982846;28;19925;-71
2023/11/25 10:20:19;;;;;;;;;;;;;;;;;;4987440;28;19921;-71
2023/11/25 10:22:45;;;;;;;;;;;;;;;;;;4984019;28;20044;-71
2023/11/25 10:25:11;;;;;;;;;;;;;;;;;;4984169;28;19917;-71
2023/11/25 10:27:38;;;;;;;;;;;;;;;;;;4982852;28;20304;-72
2023/11/25 10:30:05;;;;;;;;;;;;;;;;;;4990111;28;20494;-72
2023/11/25 10:32:31;;;;;;;;;;;;;;;;;;4987890;28;19925;-71
2023/11/25 10:34:57;;;;;;;;;;;;;;;;;;4978922;28;19989;-71
2023/11/25 10:37:23;;;;;;;;;;;;;;;;;;4984549;28;20486;-71
2023/11/25 10:39:49;;;;;;;;;;;;;;;;;;4980642;28;19918;-71
2023/11/25 10:42:15;;;;;;;;;;;;;;;;;;4988786;28;19981;-71
2023/11/25 10:44:41;;;;;;;;;;;;;;;;;;4984379;28;20004;-71
2023/11/25 10:47:07;;;;;;;;;;;;;;;;;;4984607;28;19949;-73
2023/11/25 10:49:34;;;;;;;;;;;;;;;;;;4981959;28;20478;-70
2023/11/25 10:52:00;;;;;;;;;;;;;;;;;;4985587;28;19917;-71
2023/11/25 10:54:28;;;;;;;;;;;;;;;;;;4984281;28;19992;-71
2023/11/25 10:56:55;;;;;;;;;;;;;;;;;;4990143;28;19940;-72
2023/11/25 10:59:21;;;;;;;;;;;;;;;;;;4988036;28;20406;-72
2023/11/25 11:01:47;;;;;;;;;;;;;;;;;;4988558;28;19917;-72
2023/11/25 11:04:13;;;;;;;;;;;;;;;;;;4991323;28;19917;-72
2023/11/25 11:06:39;;;;;;;;;;;;;;;;;;4984575;28;19926;-72
2023/11/25 11:09:05;;;;;;;;;;;;;;;;;;4990376;28;19929;-71
2023/11/25 11:11:31;;;;;;;;;;;;;;;;;;4994545;28;20000;-72
2023/11/25 11:13:58;;;;;;;;;;;;;;;;;;4985711;28;19928;-72
2023/11/25 11:16:24;;;;;;;;;;;;;;;;;;4989970;28;19917;-72
2023/11/25 11:18:50;;;;;;;;;;;;;;;;;;4988527;28;20274;-70
2023/11/25 11:21:16;;;;;;;;;;;;;;;;;;4990698;28;19983;-71
2023/11/25 11:23:42;;;;;;;;;;;;;;;;;;4986427;28;20036;-73
2023/11/25 11:26:08;;;;;;;;;;;;;;;;;;4988078;28;19948;-71
2023/11/25 11:28:35;;;;;;;;;;;;;;;;;;4986632;28;19929;-71
2023/11/25 11:31:01;;;;;;;;;;;;;;;;;;4990984;28;20052;-72
2023/11/25 11:33:27;;;;;;;;;;;;;;;;;;4990769;28;19921;-72
2023/11/25 11:35:53;;;;;;;;;;;;;;;;;;4987844;28;19925;-73
2023/11/25 11:38:19;;;;;;;;;;;;;;;;;;4990170;28;19918;-70
2023/11/25 11:40:45;;;;;;;;;;;;;;;;;;4984805;28;20471;-70
2023/11/25 11:43:14;;;;;;;;;;;;;;;;;;4989109;28;20712;-71
2023/11/25 11:45:41;;;;;;;;;;;;;;;;;;4987132;28;19918;-71
2023/11/25 11:48:07;;;;;;;;;;;;;;;;;;4987036;28;20624;-71
2023/11/25 11:50:33;;;;;;;;;;;;;;;;;;4986398;28;19925;-72
2023/11/25 11:53:00;;;;;;;;;;;;;;;;;;4992605;28;21010;-71
2023/11/25 11:55:26;;;;;;;;;;;;;;;;;;4989108;28;19918;-71
2023/11/25 11:57:51;;;;;;;;;;;;;;;;;;4986116;28;20011;-72
2023/11/25 12:00:18;;;;;;;;;;;;;;;;;;4987289;28;21199;-72
2023/11/25 12:02:44;;;;;;;;;;;;;;;;;;4985326;28;19917;-73
2023/11/25 12:05:10;;;;;;;;;;;;;;;;;;4987255;28;19921;-73
2023/11/25 12:07:37;;;;;;;;;;;;;;;;;;4982437;28;19918;-71
2023/11/25 12:10:05;;;;;;;;;;;;;;;;;;4987204;28;19913;-72
2023/11/25 12:12:31;;;;;;;;;;;;;;;;;;4989604;28;20017;-73
2023/11/25 12:14:57;;;;;;;;;;;;;;;;;;4987255;28;19917;-71
2023/11/25 12:17:23;;;;;;;;;;;;;;;;;;4992517;28;19918;-71
2023/11/25 12:19:49;;;;;;;;;;;;;;;;;;4988219;28;20383;-72
2023/11/25 12:22:15;;;;;;;;;;;;;;;;;;4990086;28;20004;-71
2023/11/25 12:24:41;;;;;;;;;;;;;;;;;;4989630;28;20360;-74
2023/11/25 12:27:07;;;;;;;;;;;;;;;;;;4988241;28;19956;-74
2023/11/25 12:29:33;;;;;;;;;;;;;;;;;;4985501;28;19956;-72
2023/11/25 12:31:59;;;;;;;;;;;;;;;;;;4984359;28;20441;-73
2023/11/25 12:34:25;;;;;;;;;;;;;;;;;;4986788;28;19968;-72
2023/11/25 12:36:51;;;;;;;;;;;;;;;;;;4984939;28;25866;-73
2023/11/25 12:39:17;;;;;;;;;;;;;;;;;;4985501;28;20487;-73
2023/11/25 12:41:43;;;;;;;;;;;;;;;;;;4986990;28;19921;-72
2023/11/25 12:44:09;;;;;;;;;;;;;;;;;;5002683;28;19918;-72
2023/11/25 12:46:35;;;;;;;;;;;;;;;;;;4984620;28;19924;-73
2023/11/25 12:49:01;;;;;;;;;;;;;;;;;;4985211;28;20865;-72
2023/11/25 12:51:27;;;;;;;;;;;;;;;;;;5000796;28;20391;-72
2023/11/25 12:53:56;;;;;;;;;;;;;;;;;;4985410;28;20455;-72
2023/11/25 12:56:22;;;;;;;;;;;;;;;;;;4989761;28;20449;-71
2023/11/25 12:58:48;;;;;;;;;;;;;;;;;;4981863;28;20083;-72
2023/11/25 13:01:14;;;;;;;;;;;;;;;;;;4981531;28;20466;-74
2023/11/25 13:03:40;;;;;;;;;;;;;;;;;;4980596;28;20757;-73
2023/11/25 13:06:06;;;;;;;;;;;;;;;;;;4980769;28;19924;-71
2023/11/25 13:08:36;;;;;;;;;;;;;;;;;;4981844;28;20004;-72
2023/11/25 13:11:08;;;;;;;;;;;;;;;;;;4987623;28;19932;-73
2023/11/25 13:13:34;;;;;;;;;;;;;;;;;;4979515;28;20000;-72
2023/11/25 13:16:00;;;;;;;;;;;;;;;;;;4989128;28;19947;-73
2023/11/25 13:18:29;;;;;;;;;;;;;;;;;;4986616;28;19925;-73
2023/11/25 13:20:55;;;;;;;;;;;;;;;;;;4984413;28;19925;-73
2023/11/25 13:23:21;;;;;;;;;;;;;;;;;;4989790;28;19925;-70
2023/11/25 13:25:47;;;;;;;;;;;;;;;;;;4985425;28;19945;-72
2023/11/25 13:28:14;;;;;;;;;;;;;;;;;;4988347;28;19956;-71
2023/11/25 13:30:39;;;;;;;;;;;;;;;;;;4980758;28;19928;-71
2023/11/25 13:33:05;;;;;;;;;;;;;;;;;;4986631;28;19922;-70
2023/11/25 13:35:31;;;;;;;;;;;;;;;;;;4980113;28;19972;-70
2023/11/25 13:37:58;;;;;;;;;;;;;;;;;;4986135;28;19917;-70
2023/11/25 13:40:29;;;;;;;;;;;;;;;;;;4986720;28;19999;-70
2023/11/25 13:42:55;;;;;;;;;;;;;;;;;;4980592;28;19930;-72
2023/11/25 13:45:23;;;;;;;;;;;;;;;;;;4984330;28;19917;-70
2023/11/25 13:47:49;;;;;;;;;;;;;;;;;;4984293;28;19940;-70
2023/11/25 13:50:15;;;;;;;;;;;;;;;;;;4982435;28;20952;-69
2023/11/25 13:52:41;;;;;;;;;;;;;;;;;;4982823;28;19932;-71
2023/11/25 13:55:09;;;;;;;;;;;;;;;;;;4983889;28;19922;-71
2023/11/25 13:57:36;;;;;;;;;;;;;;;;;;4985027;28;19976;-71
2023/11/25 14:00:02;;;;;;;;;;;;;;;;;;4988359;28;20329;-70
2023/11/25 14:02:30;;;;;;;;;;;;;;;;;;4991581;28;19917;-71
2023/11/25 14:04:55;;;;;;;;;;;;;;;;;;4985018;28;20465;-71
2023/11/25 14:07:22;;;;;;;;;;;;;;;;;;4985696;28;19917;-70
2023/11/25 14:09:47;;;;;;;;;;;;;;;;;;4986436;28;19917;-70
2023/11/25 14:12:13;;;;;;;;;;;;;;;;;;4988211;28;19956;-70
2023/11/25 14:14:39;;;;;;;;;;;;;;;;;;4983635;28;19917;-72
2023/11/25 14:17:10;;;;;;;;;;;;;;;;;;4986141;28;19970;-74
2023/11/25 14:19:36;;;;;;;;;;;;;;;;;;4983431;28;19925;-74
2023/11/25 14:22:03;;;;;;;;;;;;;;;;;;4981628;28;19914;-73
2023/11/25 14:24:30;;;;;;;;;;;;;;;;;;4985974;28;19988;-72
2023/11/25 14:26:56;;;;;;;;;;;;;;;;;;4982575;28;19968;-72
2023/11/25 14:29:22;;;;;;;;;;;;;;;;;;4984486;28;20048;-72
2023/11/25 14:31:48;;;;;;;;;;;;;;;;;;4985818;28;19917;-73
2023/11/25 14:34:14;;;;;;;;;;;;;;;;;;4990374;28;20659;-73
2023/11/25 14:36:42;;;;;;;;;;;;;;;;;;4990598;28;19921;-72
2023/11/25 14:39:08;;;;;;;;;;;;;;;;;;4988988;28;19944;-73
2023/11/25 14:41:34;;;;;;;;;;;;;;;;;;4989790;28;19928;-72
2023/11/25 14:44:00;;;;;;;;;;;;;;;;;;4993548;28;19925;-72
2023/11/25 14:46:26;;;;;;;;;;;;;;;;;;4992418;28;19917;-72
2023/11/25 14:48:52;;;;;;;;;;;;;;;;;;4980485;28;20532;-73
2023/11/25 14:51:18;;;;;;;;;;;;;;;;;;4986347;28;19918;-73
2023/11/25 14:53:44;;;;;;;;;;;;;;;;;;4986900;28;19932;-73
2023/11/25 14:56:10;;;;;;;;;;;;;;;;;;4989106;28;19917;-73
2023/11/25 14:58:36;;;;;;;;;;;;;;;;;;4984489;28;19917;-74
2023/11/25 15:01:02;;;;;;;;;;;;;;;;;;4993678;28;19919;-74
2023/11/25 15:03:28;;;;;;;;;;;;;;;;;;4988353;28;19922;-73
2023/11/25 15:05:54;;;;;;;;;;;;;;;;;;4988439;28;20351;-72
2023/11/25 15:08:20;;;;;;;;;;;;;;;;;;4987478;28;19923;-73
2023/11/25 15:10:47;;;;;;;;;;;;;;;;;;4986499;28;19960;-73
2023/11/25 15:13:13;;;;;;;;;;;;;;;;;;4988702;28;20693;-73
2023/11/25 15:15:39;;;;;;;;;;;;;;;;;;4986190;28;19917;-74
2023/11/25 15:18:07;;;;;;;;;;;;;;;;;;4991190;28;20430;-73
2023/11/25 15:20:33;;;;;;;;;;;;;;;;;;4988856;28;19918;-72
2023/11/25 15:22:59;;;;;;;;;;;;;;;;;;4987503;28;19929;-71
2023/11/25 15:25:25;;;;;;;;;;;;;;;;;;4988508;28;19964;-72
2023/11/25 15:27:51;;;;;;;;;;;;;;;;;;4988421;28;20009;-72
2023/11/25 15:30:18;;;;;;;;;;;;;;;;;;4992301;28;19917;-72
2023/11/25 15:32:43;;;;;;;;;;;;;;;;;;4989227;28;19921;-72
2023/11/25 15:35:10;;;;;;;;;;;;;;;;;;4985619;28;20425;-72
2023/11/25 15:37:35;;;;;;;;;;;;;;;;;;4983844;28;19913;-73
2023/11/25 15:40:01;;;;;;;;;;;;;;;;;;4990326;28;20344;-73
2023/11/25 15:42:27;;;;;;;;;;;;;;;;;;4989143;28;19918;-74
2023/11/25 15:44:53;;;;;;;;;;;;;;;;;;4987200;28;19965;-73
2023/11/25 15:47:19;;;;;;;;;;;;;;;;;;4988682;28;20301;-73
2023/11/25 15:49:45;;;;;;;;;;;;;;;;;;4987984;28;19917;-73
2023/11/25 15:52:12;;;;;;;;;;;;;;;;;;4991175;28;19913;-72
2023/11/25 15:54:39;;;;;;;;;;;;;;;;;;4987136;28;19972;-72
2023/11/25 15:57:06;;;;;;;;;;;;;;;;;;4985610;28;19979;-72
2023/11/25 15:59:34;;;;;;;;;;;;;;;;;;4988428;28;20488;-71
2023/11/25 16:02:00;;;;;;;;;;;;;;;;;;4987961;28;20001;-73
2023/11/25 16:04:26;;;;;;;;;;;;;;;;;;4991371;28;19925;-72
2023/11/25 16:06:53;;;;;;;;;;;;;;;;;;4989574;28;20557;-72
2023/11/25 16:09:19;;;;;;;;;;;;;;;;;;4995529;28;19990;-72
2023/11/25 16:11:45;;;;;;;;;;;;;;;;;;4988031;28;19937;-72
2023/11/25 16:14:11;;;;;;;;;;;;;;;;;;4996033;28;19926;-73
2023/11/25 16:16:37;;;;;;;;;;;;;;;;;;4989714;28;20310;-72
2023/11/25 16:19:03;;;;;;;;;;;;;;;;;;4991762;28;19921;-72
2023/11/25 16:21:29;;;;;;;;;;;;;;;;;;4998779;28;19918;-75
2023/11/25 16:23:55;;;;;;;;;;;;;;;;;;4990568;28;20387;-73
2023/11/25 16:26:21;;;;;;;;;;;;;;;;;;4992676;28;19929;-72
2023/11/25 16:28:47;;;;;;;;;;;;;;;;;;4987694;28;19921;-71
2023/11/25 16:31:13;;;;;;;;;;;;;;;;;;4992689;28;20008;-73
2023/11/25 16:33:39;;;;;;;;;;;;;;;;;;4986250;28;19925;-73
2023/11/25 16:36:06;;;;;;;;;;;;;;;;;;4991383;28;19995;-73
2023/11/25 16:38:33;;;;;;;;;;;;;;;;;;5000969;28;19972;-73